Terminal Aerodrome Forecast
Issued by NWS

Home | Current Version | Previous Version | Text Only | Print | Product List | Glossary Off
Versions: 1 2 3 4 5 6 7 8 9 10 11 12 13 14 15 16

000
FTUS43 KOAX 211120
TAFCDR
TAF
KCDR 211120Z 2112/2212 23005KT P6SM SCT040
     FM211600 15010KT P6SM BKN045
     FM212000 14012G22KT P6SM BKN045
     FM220100 14010KT P6SM BKN035
     FM220400 16009KT P6SM BKN025=

USA.gov is the U.S. government's official web portal to all federal, state and local government web resources and services.